createdAt,value
2022-08-17T00:00:02.782Z,18.60
2022-08-17T00:01:02.928Z,18.60
2022-08-17T00:02:04.940Z,18.60
2022-08-17T00:03:03.051Z,18.60
2022-08-17T00:04:03.774Z,18.60
2022-08-17T00:05:03.029Z,18.60
2022-08-17T00:06:03.095Z,18.50
2022-08-17T00:07:03.122Z,18.50
2022-08-17T00:08:03.273Z,18.50
2022-08-17T00:09:03.508Z,18.50
2022-08-17T00:10:03.771Z,18.50
2022-08-17T00:11:02.789Z,18.50
2022-08-17T00:12:34.817Z,18.50
2022-08-17T00:13:03.442Z,18.50
2022-08-17T00:14:03.423Z,18.40
2022-08-17T00:15:03.508Z,18.40
2022-08-17T00:16:03.574Z,18.40
2022-08-17T00:17:02.672Z,18.40
2022-08-17T00:18:02.691Z,18.40
2022-08-17T00:19:07.154Z,18.40
2022-08-17T00:20:02.976Z,18.40
2022-08-17T00:21:03.015Z,18.30
2022-08-17T00:22:30.148Z,18.40
2022-08-17T00:23:03.246Z,18.30
2022-08-17T00:24:03.219Z,18.30
2022-08-17T00:25:03.346Z,18.30
2022-08-17T00:26:03.473Z,18.30
2022-08-17T00:27:03.599Z,18.30
2022-08-17T00:28:02.780Z,18.30
2022-08-17T00:29:02.784Z,18.30
2022-08-17T00:30:02.815Z,18.30
2022-08-17T00:31:02.796Z,18.20
2022-08-17T00:33:10.272Z,18.20
2022-08-17T00:33:10.767Z,18.20
2022-08-17T00:34:02.979Z,18.20
2022-08-17T00:35:03.070Z,18.20
2022-08-17T00:36:03.090Z,18.20
2022-08-17T00:37:03.207Z,18.20
2022-08-17T00:38:03.217Z,18.20
2022-08-17T00:39:03.271Z,18.10
2022-08-17T00:40:03.391Z,18.10
2022-08-17T00:41:03.339Z,18.10
2022-08-17T00:42:03.297Z,18.10
2022-08-17T00:43:03.407Z,18.10
2022-08-17T00:44:03.387Z,18.10
2022-08-17T00:45:03.484Z,18.10
2022-08-17T00:46:03.526Z,18.10
2022-08-17T00:47:03.570Z,18.00
2022-08-17T00:48:02.588Z,18.00
2022-08-17T00:49:02.735Z,18.00
2022-08-17T00:50:02.758Z,18.00
2022-08-17T00:51:03.073Z,18.00
2022-08-17T00:52:03.003Z,18.00
2022-08-17T00:53:03.469Z,18.00
2022-08-17T00:54:03.477Z,18.00
2022-08-17T00:55:03.403Z,17.90
2022-08-17T00:56:03.439Z,17.90
2022-08-17T00:57:03.521Z,17.90
2022-08-17T00:58:03.560Z,17.90
2022-08-17T00:59:03.616Z,17.90
2022-08-17T01:00:03.857Z,17.90
2022-08-17T01:01:03.538Z,17.80
2022-08-17T01:02:02.611Z,17.80
2022-08-17T01:03:02.688Z,17.80
2022-08-17T01:04:02.799Z,17.80
2022-08-17T01:05:02.986Z,17.80
2022-08-17T01:06:02.954Z,17.80
2022-08-17T01:07:03.157Z,17.80
2022-08-17T01:08:03.292Z,17.80
2022-08-17T01:09:03.258Z,17.80
2022-08-17T01:10:03.330Z,17.80
2022-08-17T01:11:03.389Z,17.80
2022-08-17T01:12:03.560Z,17.80
2022-08-17T01:13:02.721Z,17.70
2022-08-17T01:14:02.694Z,17.80
2022-08-17T01:15:02.842Z,17.70
2022-08-17T01:16:02.810Z,17.70
2022-08-17T01:17:02.876Z,17.70
2022-08-17T01:18:02.930Z,17.70
2022-08-17T01:19:03.093Z,17.70
2022-08-17T01:20:03.082Z,17.70
2022-08-17T01:21:03.108Z,17.70
2022-08-17T01:22:03.195Z,17.70
2022-08-17T01:23:03.218Z,17.70
2022-08-17T01:24:03.343Z,17.70
2022-08-17T01:25:03.337Z,17.60
2022-08-17T01:26:03.397Z,17.60
2022-08-17T01:27:03.429Z,17.60
2022-08-17T01:28:03.458Z,17.60
2022-08-17T01:29:03.451Z,17.60
2022-08-17T01:30:03.531Z,17.60
2022-08-17T01:31:02.900Z,17.60
2022-08-17T01:32:03.002Z,17.60
2022-08-17T01:33:03.032Z,17.50
2022-08-17T01:34:03.042Z,17.50
2022-08-17T01:35:03.151Z,17.50
2022-08-17T01:36:03.285Z,17.50
2022-08-17T01:37:03.346Z,17.50
2022-08-17T01:38:03.539Z,17.50
2022-08-17T01:39:03.472Z,17.50
2022-08-17T01:40:03.596Z,17.50
2022-08-17T01:41:03.512Z,17.50
2022-08-17T01:42:03.534Z,17.50
2022-08-17T01:43:03.511Z,17.50
2022-08-17T01:44:02.634Z,17.40
2022-08-17T01:45:02.818Z,17.40
2022-08-17T01:46:03.953Z,17.40
2022-08-17T01:47:02.857Z,17.40
2022-08-17T01:48:02.883Z,17.40
2022-08-17T01:49:02.987Z,17.40
2022-08-17T01:50:03.074Z,17.40
2022-08-17T01:51:03.007Z,17.40
2022-08-17T01:52:03.114Z,17.30
2022-08-17T01:53:03.168Z,17.30
2022-08-17T01:54:03.163Z,17.30
2022-08-17T01:55:03.267Z,17.30
2022-08-17T01:56:03.329Z,17.30
2022-08-17T01:57:03.340Z,17.30
2022-08-17T01:58:03.372Z,17.30
2022-08-17T01:59:03.430Z,17.20
2022-08-17T02:00:03.471Z,17.20
2022-08-17T02:01:03.522Z,17.20
2022-08-17T02:02:03.546Z,17.20
2022-08-17T02:03:03.597Z,17.20
2022-08-17T02:04:02.785Z,17.20
2022-08-17T02:05:02.741Z,17.20
2022-08-17T02:06:02.829Z,17.20
2022-08-17T02:07:02.872Z,17.10
2022-08-17T02:08:03.023Z,17.10
2022-08-17T02:09:03.739Z,17.10
2022-08-17T02:10:03.135Z,17.10
2022-08-17T02:11:03.125Z,17.10
2022-08-17T02:12:37.519Z,17.10
2022-08-17T02:13:03.247Z,17.10
2022-08-17T02:14:03.986Z,17.10
2022-08-17T02:15:03.335Z,17.10
2022-08-17T02:16:03.393Z,17.10
2022-08-17T02:17:03.554Z,17.10
2022-08-17T02:18:03.487Z,17.00
2022-08-17T02:19:03.555Z,17.00
2022-08-17T02:20:03.589Z,17.00
2022-08-17T02:21:02.583Z,17.00
2022-08-17T02:22:02.709Z,17.00
2022-08-17T02:23:02.752Z,17.00
2022-08-17T02:24:02.779Z,17.00
2022-08-17T02:25:02.855Z,17.00
2022-08-17T02:26:02.774Z,17.00
2022-08-17T02:27:02.765Z,17.00
2022-08-17T02:28:02.884Z,16.90
2022-08-17T02:29:02.995Z,17.00
2022-08-17T02:30:03.113Z,17.00
2022-08-17T02:31:03.092Z,17.00
2022-08-17T02:32:03.194Z,17.00
2022-08-17T02:33:04.118Z,16.90
2022-08-17T02:34:04.303Z,16.90
2022-08-17T02:35:03.204Z,16.90
2022-08-17T02:36:03.350Z,16.90
2022-08-17T02:37:03.397Z,16.90
2022-08-17T02:38:03.435Z,16.90
2022-08-17T02:39:03.383Z,16.90
2022-08-17T02:40:03.443Z,16.90
2022-08-17T02:41:03.559Z,16.90
2022-08-17T02:42:03.603Z,16.90
2022-08-17T02:43:03.624Z,16.90
2022-08-17T02:44:03.601Z,16.90
2022-08-17T02:45:03.589Z,16.80
2022-08-17T02:46:02.668Z,16.80
2022-08-17T02:47:02.751Z,16.80
2022-08-17T02:48:02.763Z,16.80
2022-08-17T02:49:02.779Z,16.80
2022-08-17T02:50:02.930Z,16.80
2022-08-17T02:51:02.875Z,16.70
2022-08-17T02:52:02.955Z,16.70
2022-08-17T02:53:02.983Z,16.70
2022-08-17T02:54:39.459Z,16.70
2022-08-17T02:55:02.977Z,16.70
2022-08-17T02:56:03.009Z,16.70
2022-08-17T02:57:02.984Z,16.70
2022-08-17T02:58:03.045Z,16.70
2022-08-17T02:59:03.122Z,16.70
2022-08-17T03:00:03.095Z,16.60
2022-08-17T03:01:03.525Z,16.70
2022-08-17T03:02:03.675Z,16.70
2022-08-17T03:03:02.724Z,16.70
2022-08-17T03:04:02.856Z,16.70
2022-08-17T03:05:02.858Z,16.60
2022-08-17T03:06:02.885Z,16.60
2022-08-17T03:07:02.843Z,16.60
2022-08-17T03:08:02.885Z,16.60
2022-08-17T03:09:02.834Z,16.60
2022-08-17T03:10:02.926Z,16.60
2022-08-17T03:11:02.855Z,16.60
2022-08-17T03:12:02.919Z,16.60
2022-08-17T03:13:03.077Z,16.60
2022-08-17T03:14:03.210Z,16.60
2022-08-17T03:15:03.337Z,16.60
2022-08-17T03:16:03.507Z,16.60
2022-08-17T03:17:03.616Z,16.50
2022-08-17T03:18:03.600Z,16.50
2022-08-17T03:19:02.784Z,16.50
2022-08-17T03:20:02.953Z,16.50
2022-08-17T03:21:03.122Z,16.50
2022-08-17T03:22:03.364Z,16.50
2022-08-17T03:23:03.383Z,16.50
2022-08-17T03:24:03.772Z,16.50
2022-08-17T03:25:03.417Z,16.40
2022-08-17T03:26:03.488Z,16.40
2022-08-17T03:27:03.546Z,16.40
2022-08-17T03:28:03.538Z,16.40
2022-08-17T03:29:02.694Z,16.40
2022-08-17T03:30:02.620Z,16.40
2022-08-17T03:31:02.785Z,16.40
2022-08-17T03:32:02.793Z,16.40
2022-08-17T03:33:02.749Z,16.30
2022-08-17T03:34:02.957Z,16.30
2022-08-17T03:35:02.932Z,16.30
2022-08-17T03:36:03.123Z,16.30
2022-08-17T03:37:03.095Z,16.30
2022-08-17T03:38:03.109Z,16.30
2022-08-17T03:39:03.279Z,16.30
2022-08-17T03:40:03.313Z,16.30
2022-08-17T03:41:03.364Z,16.30
2022-08-17T03:42:03.458Z,16.30
2022-08-17T03:43:03.444Z,16.30
2022-08-17T03:44:03.514Z,16.30
2022-08-17T03:45:03.552Z,16.30
2022-08-17T03:46:03.626Z,16.30
2022-08-17T03:47:02.761Z,16.20
2022-08-17T03:48:02.930Z,16.30
2022-08-17T03:49:02.866Z,16.20
2022-08-17T03:50:03.009Z,16.20
2022-08-17T03:51:02.996Z,16.20
2022-08-17T03:52:03.067Z,16.20
2022-08-17T03:53:03.099Z,16.20
2022-08-17T03:54:03.149Z,16.20
2022-08-17T03:55:03.263Z,16.20
2022-08-17T03:56:03.243Z,16.20
2022-08-17T03:57:03.239Z,16.20
2022-08-17T03:58:03.382Z,16.20
2022-08-17T03:59:03.495Z,16.20
2022-08-17T04:00:03.507Z,16.20
2022-08-17T04:01:03.384Z,16.20
2022-08-17T04:02:03.541Z,16.20
2022-08-17T04:03:03.611Z,16.20
2022-08-17T04:04:02.923Z,16.20
2022-08-17T04:05:02.960Z,16.20
2022-08-17T04:06:02.865Z,16.20
2022-08-17T04:07:03.032Z,16.20
2022-08-17T04:08:03.128Z,16.20
2022-08-17T04:09:03.269Z,16.20
2022-08-17T04:10:03.342Z,16.20
2022-08-17T04:11:03.388Z,16.20
2022-08-17T04:12:04.561Z,16.20
2022-08-17T04:13:02.668Z,16.20
2022-08-17T04:14:02.756Z,16.20
2022-08-17T04:15:02.904Z,16.20
2022-08-17T04:16:02.971Z,16.20
2022-08-17T04:17:03.113Z,16.20
2022-08-17T04:18:03.411Z,16.20
2022-08-17T04:19:02.687Z,16.20
2022-08-17T04:20:02.682Z,16.20
2022-08-17T04:21:02.945Z,16.20
2022-08-17T04:22:02.889Z,16.20
2022-08-17T04:23:02.833Z,16.20
2022-08-17T04:24:02.921Z,16.20
2022-08-17T04:25:03.397Z,16.20
2022-08-17T04:26:03.262Z,16.20
2022-08-17T04:27:03.229Z,16.20
2022-08-17T04:28:03.331Z,16.20
2022-08-17T04:29:03.335Z,16.30
2022-08-17T04:30:03.388Z,16.30
2022-08-17T04:31:02.647Z,16.30
2022-08-17T04:32:02.806Z,16.30
2022-08-17T04:33:05.654Z,16.30
2022-08-17T04:34:02.831Z,16.30
2022-08-17T04:35:02.840Z,16.30
2022-08-17T04:36:02.969Z,16.30
2022-08-17T04:37:02.900Z,16.40
2022-08-17T04:38:03.076Z,16.40
2022-08-17T04:39:03.099Z,16.40
2022-08-17T04:40:04.243Z,16.40
2022-08-17T04:41:03.256Z,16.40
2022-08-17T04:42:03.241Z,16.40
2022-08-17T04:43:03.349Z,16.40
2022-08-17T04:44:03.521Z,16.50
2022-08-17T04:45:03.585Z,16.40
2022-08-17T04:46:03.653Z,16.50
2022-08-17T04:47:03.578Z,16.50
2022-08-17T04:48:02.721Z,16.50
2022-08-17T04:49:02.826Z,16.50
2022-08-17T04:50:02.982Z,16.60
2022-08-17T04:51:02.999Z,16.60
2022-08-17T04:52:04.646Z,16.60
2022-08-17T04:53:03.135Z,16.70
2022-08-17T04:54:03.294Z,16.80
2022-08-17T04:55:02.992Z,16.80
2022-08-17T04:56:03.014Z,16.90
2022-08-17T04:57:03.065Z,17.00
2022-08-17T04:58:03.132Z,17.10
2022-08-17T04:59:03.290Z,17.20
2022-08-17T05:00:03.328Z,17.30
2022-08-17T05:01:03.519Z,17.40
2022-08-17T05:02:03.489Z,17.50
2022-08-17T05:03:03.491Z,17.60
2022-08-17T05:04:21.243Z,17.70
2022-08-17T05:05:03.542Z,17.80
2022-08-17T05:06:02.727Z,17.90
2022-08-17T05:07:02.678Z,18.00
2022-08-17T05:08:02.754Z,18.10
2022-08-17T05:09:02.970Z,18.20
2022-08-17T05:10:02.925Z,18.30
2022-08-17T05:11:03.031Z,18.40
2022-08-17T05:12:03.013Z,18.40
2022-08-17T05:13:03.102Z,18.50
2022-08-17T05:14:03.211Z,18.60
2022-08-17T05:15:03.218Z,18.70
2022-08-17T05:16:03.357Z,18.80
2022-08-17T05:17:04.567Z,18.90
2022-08-17T05:18:02.712Z,19.00
2022-08-17T05:19:02.702Z,19.10
2022-08-17T05:20:02.834Z,19.20
2022-08-17T05:21:02.976Z,19.30
2022-08-17T05:22:03.004Z,19.40
2022-08-17T05:23:03.123Z,19.50
2022-08-17T05:24:03.100Z,19.70
2022-08-17T05:25:03.215Z,19.80
2022-08-17T05:26:03.203Z,19.90
2022-08-17T05:27:06.439Z,20.00
2022-08-17T05:28:03.484Z,20.10
2022-08-17T05:29:03.457Z,20.20
2022-08-17T05:30:03.467Z,20.30
2022-08-17T05:31:03.481Z,20.50
2022-08-17T05:32:03.602Z,20.50
2022-08-17T05:33:02.653Z,20.70
2022-08-17T05:34:02.621Z,20.70
2022-08-17T05:35:02.754Z,20.80
2022-08-17T05:36:02.807Z,20.90
2022-08-17T05:37:02.882Z,20.90
2022-08-17T05:38:02.991Z,21.00
2022-08-17T05:39:02.948Z,21.10
2022-08-17T05:40:03.129Z,21.10
2022-08-17T05:41:02.982Z,21.20
2022-08-17T05:42:03.034Z,21.30
2022-08-17T05:43:03.171Z,21.30
2022-08-17T05:44:05.438Z,21.40
2022-08-17T05:45:03.271Z,21.40
2022-08-17T05:46:03.475Z,21.50
2022-08-17T05:47:03.515Z,21.60
2022-08-17T05:48:03.547Z,21.60
2022-08-17T05:49:02.635Z,21.70
2022-08-17T05:50:02.841Z,21.80
2022-08-17T05:51:02.845Z,21.90
2022-08-17T05:52:02.892Z,21.90
2022-08-17T05:53:02.880Z,21.90
2022-08-17T05:54:03.002Z,21.90
2022-08-17T05:55:03.112Z,21.90
2022-08-17T05:56:03.221Z,21.90
2022-08-17T05:57:03.396Z,22.00
2022-08-17T05:58:03.568Z,22.00
2022-08-17T05:59:02.684Z,22.10
2022-08-17T06:00:02.730Z,22.20
2022-08-17T06:01:02.896Z,22.30
2022-08-17T06:02:02.807Z,22.40
2022-08-17T06:03:02.967Z,22.60
2022-08-17T06:04:02.976Z,22.70
2022-08-17T06:05:03.045Z,22.80
2022-08-17T06:06:03.086Z,22.90
2022-08-17T06:07:03.118Z,23.10
2022-08-17T06:08:03.157Z,23.20
2022-08-17T06:09:03.233Z,23.40
2022-08-17T06:10:03.270Z,23.50
2022-08-17T06:11:03.456Z,23.70
2022-08-17T06:12:03.433Z,23.80
2022-08-17T06:13:03.522Z,23.90
2022-08-17T06:14:02.622Z,24.10
2022-08-17T06:15:02.872Z,24.20
2022-08-17T06:16:02.889Z,24.30
2022-08-17T06:17:03.562Z,24.40
2022-08-17T06:18:02.928Z,24.60
2022-08-17T06:19:02.994Z,24.60
2022-08-17T06:20:03.147Z,24.70
2022-08-17T06:21:03.158Z,24.90
2022-08-17T06:22:03.197Z,24.90
2022-08-17T06:23:03.345Z,25.00
2022-08-17T06:24:03.402Z,25.10
2022-08-17T06:25:03.391Z,25.20
2022-08-17T06:26:03.396Z,25.30
2022-08-17T06:27:03.656Z,25.30
2022-08-17T06:28:02.677Z,25.40
2022-08-17T06:29:02.737Z,25.50
2022-08-17T06:30:02.784Z,25.50
2022-08-17T06:31:02.792Z,25.60
2022-08-17T06:32:02.819Z,25.70
2022-08-17T06:33:02.853Z,25.70
2022-08-17T06:34:02.915Z,25.80
2022-08-17T06:35:03.010Z,25.80
2022-08-17T06:36:03.067Z,25.80
2022-08-17T06:37:03.609Z,25.80
2022-08-17T06:38:03.469Z,25.90
2022-08-17T06:39:03.643Z,25.90
2022-08-17T06:40:03.655Z,26.00
2022-08-17T06:41:02.626Z,26.00
2022-08-17T06:42:02.816Z,26.00
2022-08-17T06:43:06.284Z,26.00
2022-08-17T06:44:03.046Z,26.10
2022-08-17T06:45:03.061Z,26.10
2022-08-17T06:46:04.033Z,26.10
2022-08-17T06:47:03.309Z,26.20
2022-08-17T06:48:03.176Z,26.20
2022-08-17T06:49:03.412Z,26.20
2022-08-17T06:50:03.430Z,26.20
2022-08-17T06:51:03.460Z,26.30
2022-08-17T06:52:03.419Z,26.30
2022-08-17T06:53:03.495Z,26.30
2022-08-17T06:54:02.657Z,26.30
2022-08-17T06:55:02.656Z,26.30
2022-08-17T06:56:03.096Z,26.30
2022-08-17T06:57:03.233Z,26.20
2022-08-17T06:58:05.288Z,26.20
2022-08-17T06:59:03.230Z,26.30
2022-08-17T07:00:03.729Z,26.30
2022-08-17T07:01:03.522Z,26.30
2022-08-17T07:02:03.499Z,26.40
2022-08-17T07:03:03.865Z,26.40
2022-08-17T07:04:04.972Z,26.40
2022-08-17T07:05:02.715Z,26.50
2022-08-17T07:06:02.720Z,26.50
2022-08-17T07:07:02.733Z,26.60
2022-08-17T07:08:02.713Z,26.60
2022-08-17T07:09:02.839Z,26.70
2022-08-17T07:10:03.572Z,26.70
2022-08-17T07:11:03.620Z,26.80
2022-08-17T07:12:02.702Z,26.80
2022-08-17T07:13:02.720Z,26.80
2022-08-17T07:14:02.871Z,26.90
2022-08-17T07:15:02.872Z,26.90
2022-08-17T07:16:02.958Z,26.90
2022-08-17T07:17:03.050Z,27.00
2022-08-17T07:18:03.338Z,27.10
2022-08-17T07:19:03.274Z,27.10
2022-08-17T07:20:03.285Z,27.10
2022-08-17T07:21:03.378Z,27.20
2022-08-17T07:22:03.409Z,27.20
2022-08-17T07:23:03.391Z,27.20
2022-08-17T07:24:03.498Z,27.30
2022-08-17T07:25:03.428Z,27.30
2022-08-17T07:26:03.420Z,27.30
2022-08-17T07:27:03.636Z,27.40
2022-08-17T07:28:03.858Z,27.50
2022-08-17T07:29:02.681Z,27.50
2022-08-17T07:30:05.675Z,27.60
2022-08-17T07:31:02.961Z,27.60
2022-08-17T07:32:03.020Z,27.60
2022-08-17T07:33:03.001Z,27.70
2022-08-17T07:34:02.997Z,27.70
2022-08-17T07:35:03.179Z,27.80
2022-08-17T07:36:03.413Z,27.80
2022-08-17T07:37:03.449Z,27.90
2022-08-17T07:38:03.381Z,27.90
2022-08-17T07:39:03.515Z,28.00
2022-08-17T07:40:15.670Z,28.00
2022-08-17T07:41:03.065Z,28.00
2022-08-17T07:42:02.870Z,28.00
2022-08-17T07:43:03.240Z,28.00
2022-08-17T07:44:03.009Z,28.00
2022-08-17T07:45:03.033Z,28.10
2022-08-17T07:46:03.156Z,28.10
2022-08-17T07:47:03.184Z,28.20
2022-08-17T07:48:03.191Z,28.20
2022-08-17T07:49:03.275Z,28.20
2022-08-17T07:50:03.521Z,28.20
2022-08-17T07:51:03.603Z,28.20
2022-08-17T07:52:24.409Z,28.20
2022-08-17T07:53:03.072Z,28.30
2022-08-17T07:54:13.831Z,28.30
2022-08-17T07:55:03.339Z,28.30
2022-08-17T07:56:03.292Z,28.40
2022-08-17T07:57:03.331Z,28.40
2022-08-17T07:58:03.548Z,28.40
2022-08-17T07:59:03.603Z,28.50
2022-08-17T08:00:03.129Z,28.50
2022-08-17T08:01:02.715Z,28.50
2022-08-17T08:02:02.706Z,28.60
2022-08-17T08:03:02.845Z,28.60
2022-08-17T08:04:02.822Z,28.70
2022-08-17T08:05:03.030Z,28.70
2022-08-17T08:06:03.070Z,28.80
2022-08-17T08:07:03.003Z,28.80
2022-08-17T08:08:03.179Z,28.90
2022-08-17T08:09:03.230Z,28.90
2022-08-17T08:10:03.273Z,29.00
2022-08-17T08:11:03.225Z,29.00
2022-08-17T08:12:03.425Z,29.10
2022-08-17T08:13:03.446Z,29.10
2022-08-17T08:14:03.380Z,29.20
2022-08-17T08:15:03.521Z,29.20
2022-08-17T08:16:03.544Z,29.20
2022-08-17T08:17:02.772Z,29.20
2022-08-17T08:18:02.721Z,29.30
2022-08-17T08:19:02.738Z,29.30
2022-08-17T08:20:37.822Z,29.40
2022-08-17T08:21:03.582Z,29.40
2022-08-17T08:22:02.714Z,29.40
2022-08-17T08:23:02.756Z,29.40
2022-08-17T08:24:02.900Z,29.50
2022-08-17T08:25:03.094Z,29.50
2022-08-17T08:26:03.094Z,29.50
2022-08-17T08:27:03.551Z,29.60
2022-08-17T08:28:02.626Z,29.60
2022-08-17T08:29:02.730Z,29.60
2022-08-17T08:30:02.771Z,29.70
2022-08-17T08:31:02.826Z,29.70
2022-08-17T08:32:02.846Z,29.70
2022-08-17T08:33:02.920Z,29.80
2022-08-17T08:34:02.936Z,29.80
2022-08-17T08:35:03.489Z,29.90
2022-08-17T08:36:02.882Z,29.90
2022-08-17T08:37:16.269Z,29.90
2022-08-17T08:38:02.931Z,29.90
2022-08-17T08:39:03.040Z,30.00
2022-08-17T08:40:03.069Z,30.00
2022-08-17T08:41:03.115Z,30.00
2022-08-17T08:42:03.227Z,30.00
2022-08-17T08:43:03.256Z,30.10
2022-08-17T08:44:03.448Z,30.10
2022-08-17T08:45:04.911Z,30.10
2022-08-17T08:46:03.670Z,30.10
2022-08-17T08:47:02.674Z,30.10
2022-08-17T08:48:05.247Z,30.10
2022-08-17T08:49:06.655Z,30.20
2022-08-17T08:50:04.610Z,30.20
2022-08-17T08:51:03.029Z,30.20
2022-08-17T08:52:03.233Z,30.20
2022-08-17T08:53:03.252Z,30.30
2022-08-17T08:54:03.183Z,30.30
2022-08-17T08:55:03.328Z,30.30
2022-08-17T08:56:03.237Z,30.30
2022-08-17T08:58:03.465Z,30.40
2022-08-17T08:59:03.509Z,30.50
2022-08-17T09:00:03.561Z,30.50
2022-08-17T09:01:02.705Z,30.50
2022-08-17T09:02:02.701Z,30.50
2022-08-17T09:03:02.831Z,30.50
2022-08-17T09:04:18.118Z,30.60
2022-08-17T09:05:15.620Z,30.60
2022-08-17T09:06:02.956Z,30.60
2022-08-17T09:07:02.968Z,30.60
2022-08-17T09:08:02.980Z,30.60
2022-08-17T09:09:03.097Z,30.60
2022-08-17T09:10:03.082Z,30.70
2022-08-17T09:11:03.104Z,30.70
2022-08-17T09:12:04.022Z,30.70
2022-08-17T09:13:09.476Z,30.70
2022-08-17T09:14:03.292Z,30.80
2022-08-17T09:15:03.438Z,30.80
2022-08-17T09:16:03.460Z,30.80
2022-08-17T09:17:03.586Z,30.90
2022-08-17T09:18:30.652Z,30.80
2022-08-17T09:19:04.891Z,30.80
2022-08-17T09:20:02.849Z,30.80
2022-08-17T09:21:02.848Z,30.80
2022-08-17T09:22:03.046Z,30.80
2022-08-17T09:23:03.173Z,30.80
2022-08-17T09:24:03.148Z,30.80
2022-08-17T09:25:03.335Z,30.70
2022-08-17T09:26:03.305Z,30.70
2022-08-17T09:27:03.310Z,30.70
2022-08-17T09:28:03.355Z,30.60
2022-08-17T09:29:03.347Z,30.60
2022-08-17T09:30:03.481Z,30.60
2022-08-17T09:31:03.507Z,30.60
2022-08-17T09:32:03.575Z,30.60
2022-08-17T09:33:03.549Z,30.60
2022-08-17T09:34:02.688Z,30.60
2022-08-17T09:35:02.841Z,30.60
2022-08-17T09:36:02.695Z,30.70
2022-08-17T09:37:02.835Z,30.70
2022-08-17T09:38:03.799Z,30.70
2022-08-17T09:39:02.975Z,30.80
2022-08-17T09:40:03.233Z,30.80
2022-08-17T09:41:03.237Z,30.90
2022-08-17T09:42:03.277Z,30.90
2022-08-17T09:43:03.341Z,30.90
2022-08-17T09:44:03.422Z,30.90
2022-08-17T09:45:03.466Z,31.00
2022-08-17T09:46:02.758Z,31.10
2022-08-17T09:47:02.728Z,31.10
2022-08-17T09:48:02.840Z,31.10
2022-08-17T09:49:02.898Z,31.10
2022-08-17T09:50:02.978Z,31.10
2022-08-17T09:51:04.425Z,31.20
2022-08-17T09:52:03.286Z,31.20
2022-08-17T09:53:03.359Z,31.20
2022-08-17T09:54:35.146Z,31.20
2022-08-17T09:55:02.733Z,31.20
2022-08-17T09:56:02.697Z,31.20
2022-08-17T09:57:26.159Z,31.20
2022-08-17T09:58:02.680Z,31.10
2022-08-17T09:59:02.686Z,31.10
2022-08-17T10:00:02.815Z,31.10
2022-08-17T10:01:03.120Z,31.10
2022-08-17T10:02:02.945Z,31.10
2022-08-17T10:03:02.930Z,31.10
2022-08-17T10:04:03.012Z,31.00
2022-08-17T10:05:03.014Z,31.00
2022-08-17T10:06:03.025Z,31.00
2022-08-17T10:07:03.079Z,30.90
2022-08-17T10:08:03.161Z,30.90
2022-08-17T10:09:03.277Z,30.90
2022-08-17T10:10:03.437Z,30.90
2022-08-17T10:11:03.618Z,30.90
2022-08-17T10:12:02.725Z,30.80
2022-08-17T10:13:02.762Z,30.80
2022-08-17T10:14:02.764Z,30.80
2022-08-17T10:15:07.838Z,30.70
2022-08-17T10:16:02.807Z,30.60
2022-08-17T10:17:02.834Z,30.60
2022-08-17T10:18:03.017Z,30.60
2022-08-17T10:19:03.091Z,30.50
2022-08-17T10:20:03.068Z,30.50
2022-08-17T10:21:03.195Z,30.50
2022-08-17T10:22:14.867Z,30.50
2022-08-17T10:23:03.386Z,30.40
2022-08-17T10:24:03.431Z,30.40
2022-08-17T10:25:20.896Z,30.40
2022-08-17T10:26:03.523Z,30.30
2022-08-17T10:27:02.684Z,30.30
2022-08-17T10:28:02.688Z,30.20
2022-08-17T10:29:02.710Z,30.20
2022-08-17T10:30:02.783Z,30.20
2022-08-17T10:31:32.947Z,30.10
2022-08-17T10:32:03.004Z,30.10
2022-08-17T10:33:03.203Z,30.00
2022-08-17T10:34:03.418Z,30.00
2022-08-17T10:35:03.508Z,30.10
2022-08-17T10:36:05.322Z,30.10
2022-08-17T10:37:02.694Z,30.20
2022-08-17T10:38:02.864Z,30.20
2022-08-17T10:39:02.811Z,30.30
2022-08-17T10:40:02.991Z,30.40
2022-08-17T10:41:02.988Z,30.40
2022-08-17T10:42:03.070Z,30.50
2022-08-17T10:43:03.107Z,30.60
2022-08-17T10:44:28.580Z,30.60
2022-08-17T10:45:03.031Z,30.70
2022-08-17T10:46:14.619Z,30.80
2022-08-17T10:47:03.175Z,30.90
2022-08-17T10:48:06.035Z,31.00
2022-08-17T10:49:03.244Z,31.00
2022-08-17T10:50:03.352Z,31.10
2022-08-17T10:51:03.287Z,31.10
2022-08-17T10:52:03.455Z,31.10
2022-08-17T10:53:03.533Z,31.20
2022-08-17T10:54:02.714Z,31.20
2022-08-17T10:55:02.786Z,31.30
2022-08-17T10:56:02.909Z,31.30
2022-08-17T10:57:03.031Z,31.30
2022-08-17T10:58:03.100Z,31.30
2022-08-17T10:59:03.155Z,31.30
2022-08-17T11:00:03.114Z,31.30
2022-08-17T11:01:03.102Z,31.40
2022-08-17T11:02:03.213Z,31.40
2022-08-17T11:03:03.262Z,31.40
2022-08-17T11:04:03.170Z,31.30
2022-08-17T11:05:03.223Z,31.30
2022-08-17T11:06:03.256Z,31.30
2022-08-17T11:07:03.303Z,31.30
2022-08-17T11:08:03.329Z,31.40
2022-08-17T11:09:03.511Z,31.40
2022-08-17T11:10:03.495Z,31.40
2022-08-17T11:11:02.660Z,31.50
2022-08-17T11:12:02.786Z,31.50
2022-08-17T11:13:02.669Z,31.60
2022-08-17T11:14:02.777Z,31.60
2022-08-17T11:15:02.894Z,31.70
2022-08-17T11:16:06.214Z,31.70
2022-08-17T11:17:03.223Z,31.70
2022-08-17T11:18:03.292Z,31.70
2022-08-17T11:19:03.305Z,31.70
2022-08-17T11:20:03.364Z,31.70
2022-08-17T11:21:03.441Z,31.70
2022-08-17T11:22:03.590Z,31.70
2022-08-17T11:23:03.621Z,31.70
2022-08-17T11:24:02.657Z,31.70
2022-08-17T11:25:02.704Z,31.70
2022-08-17T11:26:02.790Z,31.70
2022-08-17T11:27:02.825Z,31.70
2022-08-17T11:28:02.924Z,31.70
2022-08-17T11:29:02.877Z,31.80
2022-08-17T11:30:03.142Z,31.80
2022-08-17T11:31:03.084Z,31.80
2022-08-17T11:32:03.083Z,31.80
2022-08-17T11:33:03.224Z,31.90
2022-08-17T11:34:03.150Z,31.90
2022-08-17T11:35:03.241Z,31.90
2022-08-17T11:36:03.238Z,31.90
2022-08-17T11:37:03.205Z,32.00
2022-08-17T11:38:03.229Z,32.00
2022-08-17T11:39:03.258Z,32.00
2022-08-17T11:40:03.433Z,32.00
2022-08-17T11:41:03.501Z,32.00
2022-08-17T11:42:03.437Z,32.10
2022-08-17T11:43:03.594Z,32.10
2022-08-17T11:44:02.787Z,32.10
2022-08-17T11:45:02.868Z,32.20
2022-08-17T11:46:02.855Z,32.20
2022-08-17T11:47:02.864Z,32.20
2022-08-17T11:48:26.340Z,32.30
2022-08-17T11:49:02.977Z,32.30
2022-08-17T11:50:03.000Z,32.40
2022-08-17T11:51:03.134Z,32.40
2022-08-17T11:52:03.171Z,32.50
2022-08-17T11:53:03.192Z,32.50
2022-08-17T11:54:30.911Z,32.50
2022-08-17T11:55:17.948Z,32.50
2022-08-17T11:56:03.368Z,32.50
2022-08-17T11:57:03.427Z,32.50
2022-08-17T11:58:03.544Z,32.50
2022-08-17T11:59:02.684Z,32.40
2022-08-17T12:00:02.827Z,32.40
2022-08-17T12:01:02.782Z,32.40
2022-08-17T12:02:02.808Z,32.30
2022-08-17T12:03:02.851Z,32.30
2022-08-17T12:04:03.167Z,32.30
2022-08-17T12:05:02.912Z,32.30
2022-08-17T12:06:02.864Z,32.30
2022-08-17T12:07:02.860Z,32.30
2022-08-17T12:08:02.931Z,32.30
2022-08-17T12:09:03.001Z,32.30
2022-08-17T12:10:03.063Z,32.30
2022-08-17T12:11:03.090Z,32.30
2022-08-17T12:12:12.319Z,32.40
2022-08-17T12:13:03.295Z,32.40
2022-08-17T12:14:03.362Z,32.50
2022-08-17T12:15:10.437Z,32.50
2022-08-17T12:16:03.455Z,32.50
2022-08-17T12:17:03.648Z,32.60
2022-08-17T12:18:02.642Z,32.60
2022-08-17T12:19:02.831Z,32.70
2022-08-17T12:20:03.016Z,32.70
2022-08-17T12:21:02.980Z,32.70
2022-08-17T12:22:03.179Z,32.70
2022-08-17T12:23:03.329Z,32.80
2022-08-17T12:24:03.377Z,32.80
2022-08-17T12:25:03.406Z,32.80
2022-08-17T12:26:03.535Z,32.80
2022-08-17T12:27:03.528Z,32.80
2022-08-17T12:28:05.830Z,32.80
2022-08-17T12:29:03.588Z,32.80
2022-08-17T12:30:03.617Z,32.80
2022-08-17T12:31:02.767Z,32.80
2022-08-17T12:32:03.070Z,32.70
2022-08-17T12:33:03.179Z,32.70
2022-08-17T12:34:03.205Z,32.70
2022-08-17T12:35:03.297Z,32.60
2022-08-17T12:36:03.378Z,32.60
2022-08-17T12:37:03.378Z,32.60
2022-08-17T12:38:03.403Z,32.60
2022-08-17T12:39:13.189Z,32.60
2022-08-17T12:40:03.592Z,32.60
2022-08-17T12:41:03.527Z,32.60
2022-08-17T12:42:02.984Z,32.60
2022-08-17T12:43:02.746Z,32.60
2022-08-17T12:44:02.864Z,32.60
2022-08-17T12:45:02.891Z,32.60
2022-08-17T12:46:12.985Z,32.60
2022-08-17T12:47:02.987Z,32.60
2022-08-17T12:48:02.942Z,32.60
2022-08-17T12:49:03.078Z,32.50
2022-08-17T12:50:03.252Z,32.50
2022-08-17T12:51:03.331Z,32.50
2022-08-17T12:52:03.316Z,32.50
2022-08-17T12:53:03.341Z,32.50